| time (UTC) | temp F | wind direction | speed MPH | gust MPH | rain 1hr in | rain 24hr in | rain mn in | humidity % | barometer mb |
| 20260506233603 | 49 | 11 | 4.0 | 7.0 | 0.00 | 0.17 | 0.00 | 80 | 1022.3 |
| 20260506232703 | 49 | 17 | 4.0 | 8.0 | 0.00 | 0.17 | 0.00 | 79 | 1022.4 |
| 20260506231803 | 49 | 32 | 4.0 | 8.0 | 0.00 | 0.17 | 0.00 | 79 | 1022.2 |
| 20260506230903 | 49 | 355 | 4.0 | 9.0 | 0.00 | 0.17 | 0.00 | 79 | 1022.1 |
| 20260506230003 | 50 | 338 | 2.0 | 6.0 | 0.00 | 0.17 | 0.00 | 80 | 1022.3 |
| 20260506225403 | 50 | 336 | 2.0 | 3.0 | 0.00 | 0.17 | 0.00 | 80 | 1022.2 |
| 20260506224503 | 50 | 340 | 2.0 | 4.0 | 0.00 | 0.17 | 0.00 | 79 | 1022.2 |
| 20260506223603 | 50 | 354 | 1.0 | 4.0 | 0.00 | 0.17 | 0.00 | 78 | 1022.1 |
| 20260506222917 | 50 | 359 | 1.0 | 2.0 | 0.00 | 0.17 | 0.00 | 79 | 1021.9 |
| 20260506221803 | 50 | 21 | 1.0 | 3.0 | 0.00 | 0.17 | 0.00 | 79 | 1021.9 |
| 20260506221119 | 50 | 26 | 1.0 | 3.0 | 0.00 | 0.17 | 0.00 | 79 | 1022.0 |
| 20260506220004 | 50 | 31 | 2.0 | 3.0 | 0.00 | 0.17 | 0.00 | 78 | 1022.0 |
| 20260506215403 | 50 | 38 | 2.0 | 6.0 | 0.00 | 0.17 | 0.17 | 78 | 1022.0 |
| 20260506214503 | 50 | 6 | 4.0 | 7.0 | 0.00 | 0.17 | 0.17 | 77 | 1022.0 |
| 20260506213603 | 50 | 341 | 3.0 | 4.0 | 0.00 | 0.17 | 0.17 | 77 | 1021.8 |
| 20260506212703 | 50 | 338 | 2.0 | 4.0 | 0.00 | 0.17 | 0.17 | 77 | 1021.8 |
| 20260506211803 | 50 | 350 | 2.0 | 4.0 | 0.00 | 0.17 | 0.17 | 77 | 1021.6 |
| 20260506210903 | 51 | 350 | 2.0 | 3.0 | 0.00 | 0.17 | 0.17 | 77 | 1021.8 |
| 20260506210003 | 50 | 331 | 2.0 | 3.0 | 0.00 | 0.17 | 0.17 | 76 | 1021.6 |
| 20260506205403 | 50 | 343 | 1.0 | 2.0 | 0.00 | 0.17 | 0.17 | 76 | 1021.6 |
| 20260506204503 | 50 | 327 | 2.0 | 3.0 | 0.00 | 0.17 | 0.17 | 76 | 1021.7 |
| 20260506203603 | 50 | 319 | 2.0 | 3.0 | 0.00 | 0.17 | 0.17 | 76 | 1021.6 |
| 20260506202703 | 50 | 331 | 2.0 | 3.0 | 0.00 | 0.17 | 0.17 | 76 | 1021.6 |
| 20260506201803 | 51 | 352 | 1.0 | 3.0 | 0.00 | 0.17 | 0.17 | 76 | 1021.5 |
| 20260506200903 | 50 | 1 | 1.0 | 3.0 | 0.00 | 0.17 | 0.17 | 76 | 1021.5 |
| 20260506200004 | 50 | 4 | 2.0 | 3.0 | 0.00 | 0.17 | 0.17 | 76 | 1021.4 |
| 20260506195618 | 50 | 1 | 2.0 | 3.0 | 0.00 | 0.17 | 0.17 | 76 | 1021.4 |
| 20260506194503 | 50 | 10 | 1.0 | 3.0 | 0.00 | 0.17 | 0.17 | 76 | 1021.1 |
| 20260506193603 | 50 | 19 | 1.0 | 3.0 | 0.00 | 0.17 | 0.17 | 77 | 1021.1 |
| 20260506192703 | 50 | 20 | 1.0 | 2.0 | 0.00 | 0.17 | 0.17 | 76 | 1021.0 |
| 20260506192019 | 50 | 15 | 1.0 | 2.0 | 0.00 | 0.17 | 0.17 | 76 | 1021.1 |
| 20260506190903 | 50 | 34 | 2.0 | 4.0 | 0.00 | 0.17 | 0.17 | 75 | 1020.7 |
| 20260506190004 | 51 | 30 | 2.0 | 4.0 | 0.00 | 0.17 | 0.17 | 75 | 1020.8 |
| 20260506185403 | 51 | 26 | 3.0 | 7.0 | 0.00 | 0.17 | 0.17 | 74 | 1020.7 |
| 20260506184503 | 51 | 21 | 3.0 | 8.0 | 0.00 | 0.17 | 0.17 | 75 | 1020.6 |
| 20260506183603 | 51 | 20 | 3.0 | 8.0 | 0.00 | 0.17 | 0.17 | 75 | 1020.4 |
| 20260506182703 | 51 | 41 | 2.0 | 6.0 | 0.00 | 0.17 | 0.17 | 76 | 1020.5 |
| 20260506181803 | 51 | 47 | 2.0 | 7.0 | 0.00 | 0.17 | 0.17 | 76 | 1020.3 |
| 20260506180903 | 51 | 51 | 2.0 | 7.0 | 0.00 | 0.17 | 0.17 | 76 | 1020.3 |
| 20260506180004 | 51 | 51 | 2.0 | 4.0 | 0.00 | 0.17 | 0.17 | 76 | 1020.2 |
| 20260506175403 | 51 | 43 | 2.0 | 6.0 | 0.00 | 0.17 | 0.17 | 76 | 1020.1 |
| 20260506174503 | 51 | 31 | 3.0 | 6.0 | 0.00 | 0.17 | 0.17 | 75 | 1020.2 |
| 20260506173603 | 51 | 32 | 3.0 | 9.0 | 0.00 | 0.17 | 0.17 | 75 | 1019.9 |
| 20260506172703 | 51 | 33 | 4.0 | 9.0 | 0.00 | 0.17 | 0.17 | 74 | 1019.7 |
| 20260506171803 | 51 | 53 | 4.0 | 9.0 | 0.00 | 0.17 | 0.17 | 74 | 1019.4 |
| 20260506170903 | 51 | 35 | 5.0 | 15.0 | 0.00 | 0.17 | 0.17 | 73 | 1019.7 |
| 20260506170003 | 51 | 46 | 4.0 | 15.0 | 0.00 | 0.17 | 0.17 | 74 | 1019.3 |
| 20260506165403 | 51 | 46 | 3.0 | 8.0 | 0.00 | 0.17 | 0.17 | 76 | 1019.5 |
| 20260506164503 | 51 | 32 | 4.0 | 9.0 | 0.00 | 0.17 | 0.17 | 75 | 1019.5 |
| 20260506163819 | 51 | 32 | 4.0 | 9.0 | 0.00 | 0.17 | 0.17 | 75 | 1019.5 |
| 20260506162703 | 51 | 25 | 4.0 | 8.0 | 0.00 | 0.17 | 0.17 | 76 | 1019.5 |
| 20260506162018 | 51 | 29 | 5.0 | 10.0 | 0.00 | 0.17 | 0.17 | 76 | 1019.6 |
| 20260506160903 | 50 | 62 | 4.0 | 10.0 | 0.00 | 0.17 | 0.17 | 76 | 1019.5 |
| 20260506160216 | 50 | 61 | 5.0 | 10.0 | 0.00 | 0.17 | 0.17 | 77 | 1019.5 |
| 20260506155403 | 50 | 59 | 5.0 | 10.0 | 0.00 | 0.17 | 0.17 | 77 | 1019.6 |
| 20260506154503 | 50 | 33 | 5.0 | 11.0 | 0.00 | 0.17 | 0.17 | 78 | 1019.7 |
| 20260506153603 | 50 | 39 | 4.0 | 11.0 | 0.00 | 0.17 | 0.17 | 78 | 1019.4 |
| 20260506152703 | 50 | 39 | 3.0 | 8.0 | 0.00 | 0.17 | 0.17 | 79 | 1019.4 |
| 20260506151803 | 50 | 26 | 3.0 | 7.0 | 0.00 | 0.17 | 0.17 | 79 | 1019.4 |
| 20260506150903 | 50 | 27 | 3.0 | 9.0 | 0.00 | 0.17 | 0.17 | 80 | 1019.3 |
| 20260506150003 | 50 | 26 | 4.0 | 8.0 | 0.00 | 0.17 | 0.17 | 80 | 1019.3 |
| 20260506145616 | 50 | 24 | 4.0 | 9.0 | 0.00 | 0.17 | 0.17 | 80 | 1019.4 |
| 20260506144503 | 50 | 34 | 4.0 | 9.0 | 0.00 | 0.17 | 0.17 | 81 | 1019.4 |
| 20260506143603 | 50 | 39 | 4.0 | 8.0 | 0.00 | 0.17 | 0.17 | 81 | 1019.2 |
| 20260506142703 | 50 | 15 | 4.0 | 8.0 | 0.00 | 0.17 | 0.17 | 80 | 1019.3 |
| 20260506142017 | 50 | 15 | 3.0 | 8.0 | 0.00 | 0.17 | 0.17 | 80 | 1019.4 |
| 20260506140903 | 50 | 52 | 6.0 | 13.0 | 0.00 | 0.17 | 0.17 | 80 | 1019.2 |
| 20260506140003 | 50 | 36 | 4.0 | 8.0 | 0.00 | 0.17 | 0.17 | 80 | 1019.2 |
| 20260506135619 | 50 | 16 | 5.0 | 14.0 | 0.00 | 0.17 | 0.17 | 79 | 1019.2 |
| 20260506134503 | 50 | 56 | 5.0 | 10.0 | 0.00 | 0.17 | 0.17 | 79 | 1019.1 |
| 20260506133818 | 50 | 55 | 6.0 | 14.0 | 0.00 | 0.17 | 0.17 | 79 | 1019.2 |
| 20260506132703 | 50 | 36 | 5.0 | 11.0 | 0.00 | 0.17 | 0.17 | 79 | 1019.2 |
| 20260506131803 | 50 | 42 | 5.0 | 8.0 | 0.00 | 0.17 | 0.17 | 80 | 1019.0 |
| 20260506130903 | 50 | 20 | 6.0 | 13.0 | 0.00 | 0.17 | 0.17 | 79 | 1018.9 |
| 20260506130004 | 50 | 39 | 5.0 | 13.0 | 0.00 | 0.17 | 0.17 | 77 | 1018.8 |
| 20260506125403 | 51 | 18 | 5.0 | 10.0 | 0.00 | 0.17 | 0.17 | 76 | 1018.8 |
| 20260506124718 | 51 | 11 | 5.0 | 10.0 | 0.00 | 0.17 | 0.17 | 74 | 1018.7 |
| 20260506123603 | 51 | 30 | 5.0 | 9.0 | 0.00 | 0.17 | 0.17 | 73 | 1018.8 |
| 20260506122703 | 51 | 25 | 5.0 | 11.0 | 0.00 | 0.17 | 0.17 | 73 | 1018.6 |
| 20260506121803 | 51 | 13 | 6.0 | 11.0 | 0.00 | 0.17 | 0.17 | 72 | 1018.6 |
| 20260506121116 | 51 | 7 | 7.0 | 11.0 | 0.00 | 0.17 | 0.17 | 73 | 1018.7 |
| 20260506120003 | 51 | 15 | 5.0 | 9.0 | 0.00 | 0.17 | 0.17 | 74 | 1018.7 |
| 20260506115403 | 50 | 17 | 5.0 | 11.0 | 0.00 | 0.17 | 0.17 | 74 | 1018.5 |
| 20260506114503 | 50 | 30 | 3.0 | 8.0 | 0.00 | 0.17 | 0.17 | 79 | 1018.7 |
| 20260506113603 | 49 | 39 | 3.0 | 8.0 | 0.00 | 0.17 | 0.17 | 82 | 1018.7 |
| 20260506112703 | 49 | 37 | 4.0 | 8.0 | 0.00 | 0.17 | 0.17 | 83 | 1018.7 |
| 20260506111803 | 49 | 47 | 5.0 | 9.0 | 0.00 | 0.17 | 0.17 | 82 | 1018.7 |
| 20260506110903 | 49 | 19 | 6.0 | 13.0 | 0.00 | 0.17 | 0.17 | 79 | 1018.6 |
| 20260506110003 | 50 | 46 | 5.0 | 9.0 | 0.00 | 0.17 | 0.17 | 78 | 1018.5 |
| 20260506105403 | 50 | 29 | 4.0 | 9.0 | 0.00 | 0.17 | 0.17 | 77 | 1018.4 |
| 20260506104503 | 50 | 20 | 4.0 | 10.0 | 0.00 | 0.17 | 0.17 | 77 | 1018.4 |
| 20260506103603 | 50 | 74 | 4.0 | 8.0 | 0.00 | 0.17 | 0.17 | 78 | 1018.4 |
| 20260506102703 | 50 | 47 | 3.0 | 6.0 | 0.00 | 0.17 | 0.17 | 77 | 1018.4 |
| 20260506101803 | 50 | 9 | 3.0 | 6.0 | 0.00 | 0.17 | 0.17 | 78 | 1018.4 |
| 20260506100903 | 49 | 12 | 4.0 | 8.0 | 0.00 | 0.17 | 0.17 | 77 | 1018.3 |
| 20260506100004 | 49 | 30 | 5.0 | 10.0 | 0.00 | 0.17 | 0.17 | 78 | 1017.9 |
| 20260506095403 | 49 | 38 | 5.0 | 9.0 | 0.00 | 0.17 | 0.17 | 78 | 1018.2 |
| 20260506094503 | 49 | 21 | 5.0 | 13.0 | 0.01 | 0.17 | 0.17 | 78 | 1018.3 |
| 20260506093603 | 49 | 25 | 5.0 | 10.0 | 0.01 | 0.17 | 0.17 | 78 | 1018.2 |
| 20260506092703 | 49 | 26 | 6.0 | 15.0 | 0.01 | 0.17 | 0.17 | 79 | 1018.1 |
| 20260506091803 | 48 | 19 | 6.0 | 13.0 | 0.01 | 0.17 | 0.17 | 80 | 1017.9 |
| 20260506091118 | 48 | 19 | 6.0 | 13.0 | 0.01 | 0.17 | 0.17 | 82 | 1018.0 |
| 20260506090003 | 48 | 23 | 4.0 | 10.0 | 0.01 | 0.17 | 0.17 | 87 | 1018.0 |
| 20260506085403 | 48 | 29 | 5.0 | 10.0 | 0.01 | 0.17 | 0.17 | 88 | 1017.8 |
| 20260506084503 | 48 | 22 | 3.0 | 7.0 | 0.00 | 0.16 | 0.16 | 89 | 1017.9 |
| 20260506083603 | 48 | 24 | 4.0 | 9.0 | 0.00 | 0.16 | 0.16 | 89 | 1017.7 |
| 20260506082703 | 48 | 43 | 6.0 | 10.0 | 0.00 | 0.16 | 0.16 | 88 | 1017.8 |
| 20260506082019 | 48 | 46 | 6.0 | 11.0 | 0.00 | 0.16 | 0.16 | 88 | 1017.8 |
| 20260506080903 | 49 | 37 | 5.0 | 15.0 | 0.00 | 0.16 | 0.16 | 86 | 1017.5 |
| 20260506072703 | 49 | 11 | 4.0 | 7.0 | 0.00 | 0.16 | 0.16 | 89 | 1017.4 |
| 20260506071803 | 49 | 12 | 4.0 | 8.0 | 0.00 | 0.16 | 0.16 | 90 | 1017.5 |
| 20260506070903 | 48 | 14 | 4.0 | 7.0 | 0.00 | 0.16 | 0.16 | 91 | 1017.2 |
| 20260506061803 | 48 | 342 | 4.0 | 7.0 | 0.01 | 0.16 | 0.16 | 92 | 1017.2 |
| 20260506060903 | 48 | 347 | 4.0 | 7.0 | 0.01 | 0.16 | 0.16 | 92 | 1016.9 |
| 20260506060217 | 48 | 338 | 4.0 | 7.0 | 0.00 | 0.15 | 0.15 | 92 | 1016.9 |
| 20260506051117 | 47 | 7 | 3.0 | 6.0 | 0.01 | 0.15 | 0.15 | 93 | 1017.0 |
| 20260506044503 | 47 | 6 | 4.0 | 7.0 | 0.03 | 0.15 | 0.15 | 93 | 1017.0 |
| 20260506043819 | 47 | 350 | 3.0 | 7.0 | 0.04 | 0.15 | 0.15 | 93 | 1017.1 |
| 20260506042703 | 47 | 11 | 4.0 | 7.0 | 0.06 | 0.15 | 0.15 | 93 | 1017.1 |
| 20260506042017 | 47 | 11 | 4.0 | 7.0 | 0.06 | 0.15 | 0.15 | 93 | 1017.1 |
| 20260506040903 | 47 | 4 | 5.0 | 9.0 | 0.06 | 0.14 | 0.14 | 93 | 1017.1 |
| 20260506040003 | 47 | 19 | 3.0 | 7.0 | 0.06 | 0.14 | 0.14 | 93 | 1017.0 |
| 20260506035403 | 47 | 10 | 3.0 | 7.0 | 0.06 | 0.13 | 0.13 | 93 | 1017.1 |
| 20260506034503 | 47 | 354 | 3.0 | 8.0 | 0.05 | 0.12 | 0.12 | 93 | 1017.2 |
| 20260506033603 | 47 | 3 | 3.0 | 8.0 | 0.03 | 0.10 | 0.10 | 93 | 1017.2 |
| 20260506032917 | 47 | 20 | 4.0 | 8.0 | 0.04 | 0.10 | 0.10 | 93 | 1017.2 |
| 20260506031803 | 47 | 4 | 5.0 | 9.0 | 0.04 | 0.09 | 0.09 | 92 | 1017.2 |
| 20260506030903 | 47 | 350 | 4.0 | 9.0 | 0.03 | 0.08 | 0.08 | 92 | 1017.4 |
| 20260506030216 | 47 | 358 | 4.0 | 8.0 | 0.04 | 0.08 | 0.08 | 92 | 1017.4 |
| 20260506025403 | 47 | 13 | 4.0 | 7.0 | 0.03 | 0.07 | 0.07 | 92 | 1017.7 |
| 20260506024503 | 47 | 13 | 4.0 | 8.0 | 0.04 | 0.07 | 0.07 | 92 | 1017.4 |
| 20260506023603 | 47 | 23 | 4.0 | 8.0 | 0.04 | 0.07 | 0.07 | 92 | 1017.5 |
| 20260506022703 | 47 | 17 | 4.0 | 9.0 | 0.03 | 0.06 | 0.06 | 91 | 1017.6 |
| 20260506021803 | 47 | 2 | 4.0 | 9.0 | 0.03 | 0.06 | 0.05 | 91 | 1017.5 |
| 20260506020903 | 47 | 16 | 4.0 | 8.0 | 0.03 | 0.06 | 0.05 | 91 | 1017.5 |
| 20260506020004 | 47 | 349 | 4.0 | 8.0 | 0.02 | 0.05 | 0.04 | 91 | 1017.6 |
| 20260506015403 | 47 | 354 | 5.0 | 8.0 | 0.02 | 0.05 | 0.04 | 90 | 1017.7 |
| 20260506014503 | 47 | 20 | 4.0 | 9.0 | 0.02 | 0.05 | 0.03 | 90 | 1017.8 |
| 20260506013603 | 47 | 1 | 4.0 | 8.0 | 0.02 | 0.06 | 0.03 | 90 | 1017.8 |
| 20260506012703 | 47 | 354 | 5.0 | 9.0 | 0.02 | 0.06 | 0.03 | 90 | 1017.9 |
| 20260506012016 | 47 | 354 | 5.0 | 8.0 | 0.01 | 0.05 | 0.02 | 89 | 1018.0 |
| 20260506010903 | 47 | 24 | 5.0 | 9.0 | 0.02 | 0.06 | 0.02 | 89 | 1017.9 |
| 20260506010003 | 47 | 17 | 6.0 | 9.0 | 0.02 | 0.06 | 0.02 | 89 | 1017.9 |
| 20260506005403 | 48 | 9 | 5.0 | 8.0 | 0.02 | 0.06 | 0.02 | 88 | 1017.9 |
| 20260506004503 | 48 | 17 | 4.0 | 7.0 | 0.01 | 0.05 | 0.01 | 88 | 1018.0 |
| 20260506003603 | 48 | 2 | 5.0 | 10.0 | 0.01 | 0.05 | 0.01 | 88 | 1018.1 |
| 20260506002703 | 48 | 24 | 5.0 | 10.0 | 0.01 | 0.05 | 0.01 | 88 | 1018.1 |
| 20260506001803 | 48 | 20 | 4.0 | 9.0 | 0.01 | 0.06 | 0.01 | 88 | 1018.1 |
| 20260506000903 | 48 | 10 | 5.0 | 11.0 | 0.00 | 0.06 | 0.00 | 88 | 1018.4 |
| 20260506000003 | 48 | 18 | 3.0 | 10.0 | 0.00 | 0.07 | 0.00 | 88 | 1018.2 |
| 20260505235403 | 48 | 31 | 4.0 | 10.0 | 0.00 | 0.08 | 0.00 | 88 | 1018.3 |
| 20260505234503 | 49 | 10 | 4.0 | 8.0 | 0.00 | 0.11 | 0.00 | 87 | 1018.5 |
| 20260505233817 | 49 | 18 | 4.0 | 8.0 | 0.00 | 0.12 | 0.00 | 87 | 1018.4 |